Time;durP1;ratioP1;P1;durP2;ratioP2;P2;SDS_P1;SDS_P2;PMS_P1;PMS_P2;Temp;Humidity;BMP_temperature;BMP_pressure;BME280_temperature;BME280_humidity;BME280_pressure;Samples;Min_cycle;Max_cycle;Signal;HPM_P1;HPM_P2
2023/05/11 00:01:33;;;;;;;1.53;0.67;;;;;;;;;;5030233;28;20442;-80
2023/05/11 00:03:59;;;;;;;1.10;0.50;;;;;;;;;;5019401;28;20453;-81
2023/05/11 00:06:25;;;;;;;1.80;0.52;;;;;;;;;;5014350;28;20384;-81
2023/05/11 00:08:51;;;;;;;1.45;0.50;;;;;;;;;;5028726;28;20439;-81
2023/05/11 00:11:17;;;;;;;1.80;0.60;;;;;;;;;;5031885;28;20379;-81
2023/05/11 00:13:44;;;;;;;2.13;0.70;;;;;;;;;;5027609;28;20850;-81
2023/05/11 00:16:10;;;;;;;0.80;0.57;;;;;;;;;;5029084;28;20391;-81
2023/05/11 00:18:36;;;;;;;1.05;0.70;;;;;;;;;;5030834;28;20418;-81
2023/05/11 00:21:02;;;;;;;1.50;0.50;;;;;;;;;;5021358;28;20434;-81
2023/05/11 00:23:28;;;;;;;1.92;0.60;;;;;;;;;;5014454;28;20460;-82
2023/05/11 00:25:54;;;;;;;0.95;0.50;;;;;;;;;;5019824;28;21035;-82
2023/05/11 00:28:21;;;;;;;0.98;0.50;;;;;;;;;;5029265;28;20375;-81
2023/05/11 00:30:47;;;;;;;0.95;0.50;;;;;;;;;;5025822;28;20390;-81
2023/05/11 00:33:14;;;;;;;2.33;0.60;;;;;;;;;;5022022;28;20386;-82
2023/05/11 00:35:40;;;;;;;0.70;0.40;;;;;;;;;;5026110;28;20383;-81
2023/05/11 00:38:06;;;;;;;1.67;0.60;;;;;;;;;;5027170;28;20385;-81
2023/05/11 00:40:32;;;;;;;2.08;0.70;;;;;;;;;;5014256;28;20421;-81
2023/05/11 00:42:58;;;;;;;1.17;0.60;;;;;;;;;;5015474;28;20383;-81
2023/05/11 00:45:24;;;;;;;1.70;0.95;;;;;;;;;;5013343;28;20438;-81
2023/05/11 00:47:50;;;;;;;2.03;0.70;;;;;;;;;;5014462;28;20431;-82
2023/05/11 00:50:17;;;;;;;0.57;0.52;;;;;;;;;;5015885;28;20401;-81
2023/05/11 00:52:44;;;;;;;0.98;0.60;;;;;;;;;;5016671;28;20399;-81
2023/05/11 00:55:11;;;;;;;1.20;0.50;;;;;;;;;;5018165;28;20910;-81
2023/05/11 00:57:38;;;;;;;1.10;0.50;;;;;;;;;;5026792;28;20464;-81
2023/05/11 01:00:04;;;;;;;0.97;0.50;;;;;;;;;;5014061;28;20404;-82
2023/05/11 01:02:30;;;;;;;1.48;0.52;;;;;;;;;;5018377;28;20900;-81
2023/05/11 01:04:56;;;;;;;0.80;0.50;;;;;;;;;;5028272;28;20403;-82
2023/05/11 01:07:22;;;;;;;1.73;0.50;;;;;;;;;;5027243;28;20382;-81
2023/05/11 01:09:54;;;;;;;1.20;0.60;;;;;;;;;;5028361;28;20880;-82
2023/05/11 01:12:33;;;;;;;0.70;0.40;;;;;;;;;;5024170;28;20398;-82
2023/05/11 01:15:10;;;;;;;1.10;0.60;;;;;;;;;;5017893;28;20720;-82
2023/05/11 01:17:48;;;;;;;1.42;0.70;;;;;;;;;;5017597;28;20394;-82
2023/05/11 01:20:19;;;;;;;1.17;0.50;;;;;;;;;;5032453;28;20726;-82
2023/05/11 01:23:03;;;;;;;0.98;0.55;;;;;;;;;;5029419;28;20386;-82
2023/05/11 01:25:32;;;;;;;1.37;0.60;;;;;;;;;;5027159;28;20452;-82
2023/05/11 01:28:09;;;;;;;2.45;0.70;;;;;;;;;;5026990;28;20375;-82
2023/05/11 01:30:54;;;;;;;1.08;0.60;;;;;;;;;;5017099;28;20929;-82
2023/05/11 01:33:22;;;;;;;1.80;0.90;;;;;;;;;;5030178;28;20383;-82
2023/05/11 01:35:51;;;;;;;1.27;0.63;;;;;;;;;;5027101;28;20444;-82
2023/05/11 01:38:19;;;;;;;0.98;0.65;;;;;;;;;;5029197;28;20383;-83
2023/05/11 01:40:50;;;;;;;1.52;0.60;;;;;;;;;;5029050;28;20421;-83
2023/05/11 01:43:18;;;;;;;2.88;0.70;;;;;;;;;;5026352;28;20386;-82
2023/05/11 01:45:46;;;;;;;1.40;0.80;;;;;;;;;;5025454;28;20387;-82
2023/05/11 01:48:14;;;;;;;1.35;0.63;;;;;;;;;;5026979;28;20737;-82
2023/05/11 01:50:41;;;;;;;1.70;0.60;;;;;;;;;;5027258;28;20376;-83
2023/05/11 01:53:08;;;;;;;0.90;0.65;;;;;;;;;;5020983;28;20384;-82
2023/05/11 01:55:35;;;;;;;1.77;0.60;;;;;;;;;;5018732;28;20379;-82
2023/05/11 01:58:02;;;;;;;1.03;0.73;;;;;;;;;;5023730;28;20388;-82
2023/05/11 02:00:28;;;;;;;1.47;0.90;;;;;;;;;;5013267;28;20506;-82
2023/05/11 02:02:55;;;;;;;1.60;0.70;;;;;;;;;;5018351;28;20387;-82
2023/05/11 02:05:22;;;;;;;2.50;1.05;;;;;;;;;;5018226;28;20771;-82
2023/05/11 02:07:49;;;;;;;2.08;1.20;;;;;;;;;;5016392;28;20771;-83
2023/05/11 02:10:16;;;;;;;1.10;0.70;;;;;;;;;;5024632;28;20465;-82
2023/05/11 02:12:43;;;;;;;1.52;0.70;;;;;;;;;;5029240;28;20375;-81
2023/05/11 02:15:10;;;;;;;2.08;0.70;;;;;;;;;;5029567;28;20447;-82
2023/05/11 02:17:38;;;;;;;0.82;0.47;;;;;;;;;;5029467;28;20743;-81
2023/05/11 02:20:05;;;;;;;1.15;0.50;;;;;;;;;;5015515;28;20798;-82
2023/05/11 02:22:31;;;;;;;1.35;0.63;;;;;;;;;;5030953;28;20446;-82
2023/05/11 02:24:57;;;;;;;0.53;0.50;;;;;;;;;;5032485;28;20475;-82
2023/05/11 02:27:24;;;;;;;2.22;0.60;;;;;;;;;;5029595;28;20819;-82
2023/05/11 02:29:50;;;;;;;0.77;0.50;;;;;;;;;;5033886;28;20856;-82
2023/05/11 02:32:17;;;;;;;1.60;0.77;;;;;;;;;;5024699;28;20432;-81
2023/05/11 02:34:47;;;;;;;1.70;0.80;;;;;;;;;;5033204;28;20394;-80
2023/05/11 02:37:15;;;;;;;1.13;0.80;;;;;;;;;;5029385;28;20422;-82
2023/05/11 02:39:43;;;;;;;1.13;0.70;;;;;;;;;;5031644;28;20406;-82
2023/05/11 02:42:14;;;;;;;1.90;0.80;;;;;;;;;;5027442;28;20405;-82
2023/05/11 02:44:44;;;;;;;0.60;0.50;;;;;;;;;;5033761;28;20382;-83
2023/05/11 02:47:12;;;;;;;1.10;0.40;;;;;;;;;;5032793;28;20939;-82
2023/05/11 02:49:38;;;;;;;1.40;0.63;;;;;;;;;;5030966;28;20374;-83
2023/05/11 02:52:06;;;;;;;1.05;0.47;;;;;;;;;;5030890;28;20755;-83
2023/05/11 02:54:32;;;;;;;0.32;0.32;;;;;;;;;;5028389;28;20387;-82
2023/05/11 02:56:58;;;;;;;1.38;0.40;;;;;;;;;;5032638;28;20441;-82
2023/05/11 02:59:24;;;;;;;1.27;0.50;;;;;;;;;;5032931;28;20387;-83
2023/05/11 03:01:51;;;;;;;1.20;0.50;;;;;;;;;;5032714;28;20452;-83
2023/05/11 03:04:18;;;;;;;1.70;0.70;;;;;;;;;;5032918;28;20979;-82
2023/05/11 03:06:44;;;;;;;0.80;0.45;;;;;;;;;;5031941;28;20386;-82
2023/05/11 03:09:10;;;;;;;1.98;0.60;;;;;;;;;;5017029;28;20377;-83
2023/05/11 03:11:37;;;;;;;1.70;0.80;;;;;;;;;;5017480;28;20381;-82
2023/05/11 03:14:03;;;;;;;1.45;0.60;;;;;;;;;;5030658;28;20411;-82
2023/05/11 03:16:29;;;;;;;0.93;0.70;;;;;;;;;;5023138;28;20405;-82
2023/05/11 03:18:55;;;;;;;2.10;1.20;;;;;;;;;;5028288;28;20918;-83
2023/05/11 03:21:22;;;;;;;1.00;0.70;;;;;;;;;;5033479;28;20418;-82
2023/05/11 03:23:49;;;;;;;1.52;1.10;;;;;;;;;;5033225;28;20411;-83
2023/05/11 03:26:17;;;;;;;1.23;0.95;;;;;;;;;;5032869;28;20385;-83
2023/05/11 03:28:44;;;;;;;2.83;1.25;;;;;;;;;;5027694;28;20406;-82
2023/05/11 03:31:10;;;;;;;2.50;1.33;;;;;;;;;;5026411;28;20379;-82
2023/05/11 03:33:36;;;;;;;1.73;1.00;;;;;;;;;;5030684;28;20383;-81
2023/05/11 03:36:03;;;;;;;2.10;1.00;;;;;;;;;;5032587;28;20457;-82
2023/05/11 03:38:32;;;;;;;0.90;0.67;;;;;;;;;;5032400;28;20860;-82
2023/05/11 03:40:59;;;;;;;0.90;0.90;;;;;;;;;;5023171;28;20434;-83
2023/05/11 03:43:26;;;;;;;1.50;0.90;;;;;;;;;;5018596;28;20860;-83
2023/05/11 03:45:53;;;;;;;1.10;0.60;;;;;;;;;;5016058;28;20918;-80
2023/05/11 03:48:19;;;;;;;1.92;0.80;;;;;;;;;;5023155;28;20375;-81
2023/05/11 03:50:46;;;;;;;1.85;0.70;;;;;;;;;;5025541;28;20391;-81
2023/05/11 03:53:13;;;;;;;1.75;0.70;;;;;;;;;;5017596;28;20383;-81
2023/05/11 03:55:39;;;;;;;1.33;0.80;;;;;;;;;;5019909;28;20903;-81
2023/05/11 03:58:06;;;;;;;0.93;0.60;;;;;;;;;;5033284;28;20391;-81
2023/05/11 04:00:32;;;;;;;3.30;1.00;;;;;;;;;;5017327;28;20751;-81
2023/05/11 04:03:01;;;;;;;1.20;0.70;;;;;;;;;;5023557;28;20387;-81
2023/05/11 04:05:27;;;;;;;2.30;0.90;;;;;;;;;;5030095;28;20389;-82
2023/05/11 04:07:53;;;;;;;1.10;0.88;;;;;;;;;;5030708;28;20393;-82
2023/05/11 04:10:19;;;;;;;1.98;0.90;;;;;;;;;;5030775;28;20379;-82
2023/05/11 04:12:45;;;;;;;2.17;1.10;;;;;;;;;;5014601;28;20479;-81
2023/05/11 04:15:11;;;;;;;1.57;0.90;;;;;;;;;;5025899;28;20387;-82
2023/05/11 04:17:37;;;;;;;1.70;1.05;;;;;;;;;;5029401;28;20419;-81
2023/05/11 04:20:03;;;;;;;1.80;1.00;;;;;;;;;;5029839;28;20379;-81
2023/05/11 04:22:29;;;;;;;1.10;0.80;;;;;;;;;;5025118;28;20413;-82
2023/05/11 04:24:55;;;;;;;1.60;1.00;;;;;;;;;;5022442;28;20402;-81
2023/05/11 04:27:21;;;;;;;2.00;0.88;;;;;;;;;;5029084;28;20385;-81
2023/05/11 04:29:47;;;;;;;1.92;0.82;;;;;;;;;;5026065;28;20383;-81
2023/05/11 04:32:14;;;;;;;1.30;1.00;;;;;;;;;;5028105;28;20922;-81
2023/05/11 04:34:40;;;;;;;2.55;0.90;;;;;;;;;;5024641;28;20466;-81
2023/05/11 04:37:06;;;;;;;1.30;0.90;;;;;;;;;;5027288;28;20392;-81
2023/05/11 04:39:35;;;;;;;1.98;0.93;;;;;;;;;;5022989;28;20449;-81
2023/05/11 04:42:01;;;;;;;1.20;0.88;;;;;;;;;;5025320;28;20880;-81
2023/05/11 04:44:27;;;;;;;1.95;0.90;;;;;;;;;;5023951;28;20459;-81
2023/05/11 04:46:54;;;;;;;1.85;0.95;;;;;;;;;;5019007;28;20459;-81
2023/05/11 04:49:20;;;;;;;2.17;1.10;;;;;;;;;;5026424;28;20386;-81
2023/05/11 04:51:46;;;;;;;1.65;0.90;;;;;;;;;;5032772;28;20395;-81
2023/05/11 04:54:12;;;;;;;2.57;1.00;;;;;;;;;;5032805;28;20409;-80
2023/05/11 04:56:39;;;;;;;1.70;0.90;;;;;;;;;;5032062;28;20398;-80
2023/05/11 04:59:09;;;;;;;1.70;1.13;;;;;;;;;;5032290;28;20387;-80
2023/05/11 05:01:35;;;;;;;1.75;1.17;;;;;;;;;;5032192;28;20407;-80
2023/05/11 05:04:01;;;;;;;1.35;1.10;;;;;;;;;;5031091;28;20383;-80
2023/05/11 05:06:27;;;;;;;2.50;1.15;;;;;;;;;;5029782;28;20387;-80
2023/05/11 05:08:53;;;;;;;1.35;1.00;;;;;;;;;;5032107;28;20493;-80
2023/05/11 05:11:20;;;;;;;1.55;1.10;;;;;;;;;;5031785;28;20426;-80
2023/05/11 05:13:46;;;;;;;2.20;1.00;;;;;;;;;;5031904;28;20432;-80
2023/05/11 05:16:12;;;;;;;3.35;1.17;;;;;;;;;;5031426;28;20395;-79
2023/05/11 05:18:38;;;;;;;2.10;1.00;;;;;;;;;;5032382;28;20390;-80
2023/05/11 05:21:04;;;;;;;2.80;1.20;;;;;;;;;;5032620;28;20479;-82
2023/05/11 05:23:30;;;;;;;1.85;1.30;;;;;;;;;;5032379;28;20390;-81
2023/05/11 05:25:56;;;;;;;2.63;1.30;;;;;;;;;;5031579;28;20486;-81
2023/05/11 05:28:22;;;;;;;2.42;1.20;;;;;;;;;;5032048;28;20845;-81
2023/05/11 05:30:48;;;;;;;1.65;1.13;;;;;;;;;;5030807;28;20385;-78
2023/05/11 05:33:14;;;;;;;2.10;1.23;;;;;;;;;;5030215;28;20892;-77
2023/05/11 05:35:42;;;;;;;1.73;1.33;;;;;;;;;;5031399;28;20489;-77
2023/05/11 05:38:08;;;;;;;2.13;1.27;;;;;;;;;;5031525;28;20390;-77
2023/05/11 05:40:36;;;;;;;3.25;1.23;;;;;;;;;;5031441;28;20419;-77
2023/05/11 05:43:02;;;;;;;3.47;1.27;;;;;;;;;;5032070;28;20466;-77
2023/05/11 05:45:28;;;;;;;2.40;1.40;;;;;;;;;;5032251;28;20417;-77
2023/05/11 05:47:55;;;;;;;3.53;1.40;;;;;;;;;;5032289;28;20753;-77
2023/05/11 05:50:21;;;;;;;2.17;1.40;;;;;;;;;;5031882;28;20400;-77
2023/05/11 05:52:47;;;;;;;2.10;1.15;;;;;;;;;;5032069;28;20395;-77
2023/05/11 05:55:13;;;;;;;2.67;1.27;;;;;;;;;;5030628;28;20895;-77
2023/05/11 05:57:39;;;;;;;1.75;1.40;;;;;;;;;;5031817;28;20388;-77
2023/05/11 06:00:05;;;;;;;3.22;1.50;;;;;;;;;;5031963;28;20394;-77
2023/05/11 06:02:31;;;;;;;2.05;1.60;;;;;;;;;;5031962;28;20957;-77
2023/05/11 06:04:57;;;;;;;3.20;1.10;;;;;;;;;;5031979;28;20383;-76
2023/05/11 06:07:23;;;;;;;2.20;1.40;;;;;;;;;;5031688;28;20383;-77
2023/05/11 06:09:49;;;;;;;2.50;1.35;;;;;;;;;;5031769;28;20386;-77
2023/05/11 06:12:15;;;;;;;2.85;1.40;;;;;;;;;;5031826;28;20869;-77
2023/05/11 06:14:41;;;;;;;3.93;1.60;;;;;;;;;;5031895;28;20450;-77
2023/05/11 06:17:07;;;;;;;3.25;1.50;;;;;;;;;;5027010;28;20425;-77
2023/05/11 06:19:34;;;;;;;3.92;1.55;;;;;;;;;;5031685;28;20386;-77
2023/05/11 06:22:00;;;;;;;3.05;1.40;;;;;;;;;;5031789;28;20494;-77
2023/05/11 06:24:26;;;;;;;2.67;1.35;;;;;;;;;;5031035;28;20857;-77
2023/05/11 06:26:52;;;;;;;2.10;1.30;;;;;;;;;;5030295;28;20436;-77
2023/05/11 06:29:21;;;;;;;5.00;1.65;;;;;;;;;;5030559;28;20380;-77
2023/05/11 06:31:51;;;;;;;2.78;1.40;;;;;;;;;;5030804;28;20745;-77
2023/05/11 06:34:18;;;;;;;2.80;1.40;;;;;;;;;;5030686;28;20390;-77
2023/05/11 06:36:44;;;;;;;2.70;1.50;;;;;;;;;;5030487;28;20391;-77
2023/05/11 06:39:10;;;;;;;2.05;1.30;;;;;;;;;;5030498;28;20403;-77
2023/05/11 06:41:36;;;;;;;2.38;1.40;;;;;;;;;;5030502;28;20428;-77
2023/05/11 06:44:02;;;;;;;2.42;1.30;;;;;;;;;;5029477;28;20391;-76
2023/05/11 06:46:28;;;;;;;2.50;1.50;;;;;;;;;;5030317;28;20383;-77
2023/05/11 06:48:54;;;;;;;3.15;1.48;;;;;;;;;;5030604;28;20521;-77
2023/05/11 06:51:20;;;;;;;4.32;1.60;;;;;;;;;;5030603;28;20414;-77
2023/05/11 06:53:47;;;;;;;2.83;1.40;;;;;;;;;;5032704;28;20918;-76
2023/05/11 06:56:13;;;;;;;2.22;1.70;;;;;;;;;;5033839;28;20387;-77
2023/05/11 06:58:39;;;;;;;3.87;1.70;;;;;;;;;;5033823;28;20397;-77
2023/05/11 07:01:08;;;;;;;3.30;1.77;;;;;;;;;;5030902;28;20489;-77
2023/05/11 07:03:34;;;;;;;2.83;1.85;;;;;;;;;;5033953;28;20470;-77
2023/05/11 07:06:00;;;;;;;3.75;1.80;;;;;;;;;;5033724;28;20390;-78
2023/05/11 07:08:26;;;;;;;2.67;1.50;;;;;;;;;;5034006;28;20426;-78
2023/05/11 07:10:52;;;;;;;2.50;1.60;;;;;;;;;;5033732;28;20391;-77
2023/05/11 07:13:18;;;;;;;6.45;1.50;;;;;;;;;;5034011;28;20424;-78
2023/05/11 07:15:44;;;;;;;3.65;1.25;;;;;;;;;;5033405;28;20387;-78
2023/05/11 07:18:10;;;;;;;2.17;1.13;;;;;;;;;;5033850;28;20394;-77
2023/05/11 07:20:36;;;;;;;2.75;1.30;;;;;;;;;;5033502;28;20429;-77
2023/05/11 07:23:02;;;;;;;3.22;1.30;;;;;;;;;;5034008;28;20384;-77
2023/05/11 07:25:29;;;;;;;1.58;1.30;;;;;;;;;;5033416;28;20411;-78
2023/05/11 07:27:55;;;;;;;2.90;1.50;;;;;;;;;;5033456;28;20388;-77
2023/05/11 07:30:21;;;;;;;2.53;1.33;;;;;;;;;;5033518;28;20379;-77
2023/05/11 07:32:47;;;;;;;2.10;1.30;;;;;;;;;;5033113;28;20391;-77
2023/05/11 07:35:14;;;;;;;3.28;1.60;;;;;;;;;;5033363;28;20390;-77
2023/05/11 07:37:40;;;;;;;3.03;1.60;;;;;;;;;;5033092;28;20391;-77
2023/05/11 07:40:07;;;;;;;2.30;1.10;;;;;;;;;;5033183;28;20402;-77
2023/05/11 07:42:33;;;;;;;2.53;1.02;;;;;;;;;;5033165;28;20434;-78
2023/05/11 07:44:58;;;;;;;1.80;1.00;;;;;;;;;;5032930;28;20464;-77
2023/05/11 07:47:24;;;;;;;2.67;1.10;;;;;;;;;;5032942;28;20387;-77
2023/05/11 07:49:50;;;;;;;1.77;1.30;;;;;;;;;;5032630;28;20388;-77
2023/05/11 07:52:17;;;;;;;1.80;1.00;;;;;;;;;;5032572;28;20753;-77
2023/05/11 07:54:43;;;;;;;1.40;0.75;;;;;;;;;;5032951;28;20386;-77
2023/05/11 07:57:12;;;;;;;1.50;0.90;;;;;;;;;;5032707;28;20378;-77
2023/05/11 07:59:39;;;;;;;2.22;0.90;;;;;;;;;;5032904;28;20415;-77
2023/05/11 08:02:07;;;;;;;1.45;0.70;;;;;;;;;;5032803;28;20403;-77
2023/05/11 08:04:33;;;;;;;1.38;0.80;;;;;;;;;;5032668;28;20398;-77
2023/05/11 08:06:59;;;;;;;1.58;1.10;;;;;;;;;;5032474;28;20380;-77
2023/05/11 08:09:25;;;;;;;1.05;0.90;;;;;;;;;;5030703;28;20377;-78
2023/05/11 08:11:52;;;;;;;1.30;0.70;;;;;;;;;;5037635;28;20927;-77
2023/05/11 08:14:20;;;;;;;2.20;0.85;;;;;;;;;;5032538;28;20391;-78
2023/05/11 08:16:46;;;;;;;1.93;1.00;;;;;;;;;;5033724;28;20471;-78
2023/05/11 08:19:12;;;;;;;1.35;0.80;;;;;;;;;;5032412;28;20375;-78
2023/05/11 08:21:38;;;;;;;1.83;0.85;;;;;;;;;;5032548;28;20411;-78
2023/05/11 08:24:04;;;;;;;0.97;0.83;;;;;;;;;;5032418;28;20375;-78
2023/05/11 08:26:30;;;;;;;1.88;0.90;;;;;;;;;;5031940;28;20475;-78
2023/05/11 08:28:56;;;;;;;1.15;0.88;;;;;;;;;;5032278;28;20461;-77
2023/05/11 08:31:22;;;;;;;1.30;0.90;;;;;;;;;;5032550;28;20438;-78
2023/05/11 08:33:48;;;;;;;1.13;0.80;;;;;;;;;;5032642;28;20454;-78
2023/05/11 08:36:14;;;;;;;1.10;0.90;;;;;;;;;;5032117;28;20385;-78
2023/05/11 08:38:40;;;;;;;2.33;1.15;;;;;;;;;;5032133;28;20458;-78
2023/05/11 08:41:06;;;;;;;2.22;0.88;;;;;;;;;;5031857;28;20849;-78
2023/05/11 08:43:35;;;;;;;1.33;0.80;;;;;;;;;;5032049;28;20529;-78
2023/05/11 08:46:03;;;;;;;1.30;0.80;;;;;;;;;;5031845;28;20799;-78
2023/05/11 08:48:29;;;;;;;1.23;0.90;;;;;;;;;;5032076;28;20466;-77
2023/05/11 08:50:55;;;;;;;1.70;1.00;;;;;;;;;;5031919;28;20883;-78
2023/05/11 08:53:22;;;;;;;2.75;1.10;;;;;;;;;;5028641;28;20387;-77
2023/05/11 08:55:49;;;;;;;1.20;0.90;;;;;;;;;;5031699;28;20379;-77
2023/05/11 08:58:18;;;;;;;1.13;0.90;;;;;;;;;;5031939;28;20394;-78
2023/05/11 09:00:45;;;;;;;2.05;1.10;;;;;;;;;;5031555;28;20915;-78
2023/05/11 09:03:11;;;;;;;1.40;0.93;;;;;;;;;;5032141;28;20721;-78
2023/05/11 09:05:37;;;;;;;1.90;0.90;;;;;;;;;;5031374;28;20379;-78
2023/05/11 09:08:05;;;;;;;1.88;0.80;;;;;;;;;;5031777;28;20383;-77
2023/05/11 09:10:31;;;;;;;1.23;0.70;;;;;;;;;;5031536;28;20379;-78
2023/05/11 09:12:57;;;;;;;1.60;0.70;;;;;;;;;;5031718;28;20389;-77
2023/05/11 09:15:23;;;;;;;1.00;0.60;;;;;;;;;;5030837;28;20478;-78
2023/05/11 09:17:49;;;;;;;1.38;0.60;;;;;;;;;;5031491;28;20379;-78
2023/05/11 09:20:15;;;;;;;0.93;0.52;;;;;;;;;;5031528;28;20948;-78
2023/05/11 09:22:45;;;;;;;1.13;0.80;;;;;;;;;;5031362;28;20509;-77
2023/05/11 09:25:12;;;;;;;1.15;0.70;;;;;;;;;;5031724;28;20383;-77
2023/05/11 09:27:42;;;;;;;1.13;0.60;;;;;;;;;;5033192;28;20407;-77
2023/05/11 09:30:18;;;;;;;1.52;0.57;;;;;;;;;;5031350;28;20387;-78
2023/05/11 09:32:50;;;;;;;1.45;0.65;;;;;;;;;;5031259;28;20467;-78
2023/05/11 09:35:34;;;;;;;1.20;0.60;;;;;;;;;;5030734;28;20383;-78
2023/05/11 09:38:10;;;;;;;1.70;0.67;;;;;;;;;;5031016;28;20391;-78
2023/05/11 09:40:45;;;;;;;1.38;0.75;;;;;;;;;;5030931;28;20795;-78
2023/05/11 09:43:17;;;;;;;1.85;1.00;;;;;;;;;;5030981;28;20860;-78
2023/05/11 09:45:44;;;;;;;4.15;1.13;;;;;;;;;;5031050;28;20391;-78
2023/05/11 09:48:30;;;;;;;1.38;0.90;;;;;;;;;;5030769;28;20386;-78
2023/05/11 09:51:16;;;;;;;0.82;0.50;;;;;;;;;;5030927;28;20379;-78
2023/05/11 09:53:44;;;;;;;1.60;0.30;;;;;;;;;;5031221;28;20458;-79
2023/05/11 09:56:11;;;;;;;0.50;0.30;;;;;;;;;;5030822;28;20383;-79
2023/05/11 09:58:47;;;;;;;0.85;0.40;;;;;;;;;;5030907;28;20428;-79
2023/05/11 10:01:14;;;;;;;0.50;0.30;;;;;;;;;;5031332;28;20395;-79
2023/05/11 10:03:47;;;;;;;0.50;0.30;;;;;;;;;;5030969;28;20394;-80
2023/05/11 10:06:13;;;;;;;1.20;0.60;;;;;;;;;;5031010;28;20782;-80
2023/05/11 10:08:39;;;;;;;1.65;0.50;;;;;;;;;;5030694;28;20799;-80
2023/05/11 10:11:06;;;;;;;0.80;0.50;;;;;;;;;;5031073;28;20478;-80
2023/05/11 10:13:33;;;;;;;1.35;0.60;;;;;;;;;;5030641;28;20402;-79
2023/05/11 10:16:00;;;;;;;1.00;0.50;;;;;;;;;;5030587;28;20387;-79
2023/05/11 10:18:26;;;;;;;1.60;0.57;;;;;;;;;;5030271;28;20385;-79
2023/05/11 10:20:53;;;;;;;1.02;0.40;;;;;;;;;;5030686;28;20406;-79
2023/05/11 10:23:20;;;;;;;0.73;0.52;;;;;;;;;;5029831;28;20391;-79
2023/05/11 10:25:46;;;;;;;0.63;0.40;;;;;;;;;;5030405;28;20471;-79
2023/05/11 10:28:13;;;;;;;0.90;0.53;;;;;;;;;;5033715;28;20383;-79
2023/05/11 10:30:40;;;;;;;0.80;0.50;;;;;;;;;;5034651;28;20394;-79
2023/05/11 10:33:06;;;;;;;0.70;0.53;;;;;;;;;;5033340;28;20920;-79
2023/05/11 10:35:32;;;;;;;1.20;0.73;;;;;;;;;;5032873;28;20868;-79
2023/05/11 10:38:00;;;;;;;0.60;0.50;;;;;;;;;;5034480;28;20436;-79
2023/05/11 10:40:26;;;;;;;0.77;0.70;;;;;;;;;;5034269;28;20407;-79
2023/05/11 10:42:55;;;;;;;1.17;0.70;;;;;;;;;;5034225;28;20492;-79
2023/05/11 10:45:27;;;;;;;0.70;0.70;;;;;;;;;;5033975;28;20382;-78
2023/05/11 10:48:05;;;;;;;1.10;1.00;;;;;;;;;;5034211;28;20390;-79
2023/05/11 10:50:42;;;;;;;2.05;1.02;;;;;;;;;;5034217;28;20768;-79
2023/05/11 10:53:08;;;;;;;0.50;0.50;;;;;;;;;;5024280;28;20408;-79
2023/05/11 10:55:53;;;;;;;0.77;0.40;;;;;;;;;;5033835;28;20853;-79
2023/05/11 10:58:43;;;;;;;0.82;0.45;;;;;;;;;;5034250;28;20371;-79
2023/05/11 11:01:20;;;;;;;1.10;0.60;;;;;;;;;;5034186;28;20430;-79
2023/05/11 11:04:16;;;;;;;0.47;0.47;;;;;;;;;;5033999;28;20733;-79
2023/05/11 11:06:43;;;;;;;0.40;0.30;;;;;;;;;;5024993;28;20392;-80
2023/05/11 11:09:13;;;;;;;0.55;0.20;;;;;;;;;;5033802;28;20390;-79
2023/05/11 11:11:39;;;;;;;0.50;0.40;;;;;;;;;;5034230;28;20748;-79
2023/05/11 11:14:08;;;;;;;1.48;0.38;;;;;;;;;;5033725;28;20379;-79
2023/05/11 11:16:34;;;;;;;1.00;0.40;;;;;;;;;;5033573;28;20387;-79
2023/05/11 11:19:19;;;;;;;0.20;0.17;;;;;;;;;;5032285;28;20877;-79
2023/05/11 11:21:47;;;;;;;0.50;0.40;;;;;;;;;;5033648;28;20469;-79
2023/05/11 11:24:33;;;;;;;0.35;0.20;;;;;;;;;;5041304;22;20429;-79
2023/05/11 11:26:59;;;;;;;0.40;0.40;;;;;;;;;;5005258;28;20395;-79
2023/05/11 11:29:25;;;;;;;1.40;0.90;;;;;;;;;;5014016;28;20508;-78
2023/05/11 11:31:51;;;;;;;0.90;0.70;;;;;;;;;;5013989;28;20467;-79
2023/05/11 11:34:26;;;;;;;0.60;0.50;;;;;;;;;;5013877;28;20391;-78
2023/05/11 11:36:57;;;;;;;0.82;0.70;;;;;;;;;;5013492;28;20373;-79
2023/05/11 11:39:26;;;;;;;0.30;0.30;;;;;;;;;;5012764;28;20482;-78
2023/05/11 11:52:55;;;;;;;0.30;0.30;;;;;;;;;;5133171;27;20378;-77
2023/05/11 11:55:41;;;;;;;0.40;0.30;;;;;;;;;;5108154;28;20377;-77
2023/05/11 11:58:07;;;;;;;0.20;0.20;;;;;;;;;;5107992;28;20366;-77
2023/05/11 12:00:34;;;;;;;0.30;0.30;;;;;;;;;;5107833;28;20424;-77
2023/05/11 12:03:00;;;;;;;0.70;0.30;;;;;;;;;;5088937;28;20859;-77
2023/05/11 12:05:28;;;;;;;0.40;0.30;;;;;;;;;;5087619;28;20383;-77
2023/05/11 12:07:54;;;;;;;0.45;0.38;;;;;;;;;;5101644;28;20369;-77
2023/05/11 12:10:21;;;;;;;0.52;0.30;;;;;;;;;;5090986;28;20388;-77
2023/05/11 12:12:47;;;;;;;0.40;0.32;;;;;;;;;;5103722;28;20898;-77
2023/05/11 12:15:31;;;;;;;0.60;0.50;;;;;;;;;;5089367;28;20379;-77
2023/05/11 12:17:57;;;;;;;0.70;0.47;;;;;;;;;;5088812;28;20375;-77
2023/05/11 12:20:24;;;;;;;0.47;0.40;;;;;;;;;;5088996;28;20405;-77
2023/05/11 12:22:50;;;;;;;1.15;0.40;;;;;;;;;;5102452;28;20416;-77
2023/05/11 12:25:17;;;;;;;0.93;0.40;;;;;;;;;;5103930;28;20411;-77
2023/05/11 12:27:50;;;;;;;0.70;0.40;;;;;;;;;;5088764;28;20378;-77
2023/05/11 12:30:20;;;;;;;0.40;0.40;;;;;;;;;;5088807;28;20386;-77
2023/05/11 12:32:46;;;;;;;0.40;0.35;;;;;;;;;;5088773;28;20812;-77
2023/05/11 12:35:12;;;;;;;0.43;0.30;;;;;;;;;;5088619;28;20442;-77
2023/05/11 12:37:41;;;;;;;0.50;0.30;;;;;;;;;;5088465;28;20375;-77
2023/05/11 12:40:10;;;;;;;0.45;0.30;;;;;;;;;;5088519;28;20380;-77
2023/05/11 12:42:36;;;;;;;0.68;0.40;;;;;;;;;;5091924;28;20458;-77
2023/05/11 12:45:03;;;;;;;0.30;0.30;;;;;;;;;;5088608;28;20462;-77
2023/05/11 12:47:29;;;;;;;0.73;0.30;;;;;;;;;;5088363;28;20378;-77
2023/05/11 12:49:55;;;;;;;1.00;0.38;;;;;;;;;;5088534;28;20405;-77
2023/05/11 12:52:23;;;;;;;1.75;0.40;;;;;;;;;;5099288;28;20398;-77
2023/05/11 12:54:58;;;;;;;0.20;0.20;;;;;;;;;;5095168;28;20432;-77
2023/05/11 12:57:30;;;;;;;0.52;0.30;;;;;;;;;;5109046;28;20376;-77
2023/05/11 13:00:12;;;;;;;0.70;0.20;;;;;;;;;;5095139;28;20378;-77
2023/05/11 13:02:55;;;;;;;0.47;0.30;;;;;;;;;;5095053;28;20717;-77
2023/05/11 13:05:25;;;;;;;1.42;0.60;;;;;;;;;;5095111;28;20371;-77
2023/05/11 13:08:04;;;;;;;4.35;0.80;;;;;;;;;;5094395;28;20382;-78
2023/05/11 13:10:30;;;;;;;0.70;0.30;;;;;;;;;;5094816;28;20464;-78
2023/05/11 13:12:56;;;;;;;2.10;0.40;;;;;;;;;;5094630;28;21052;-78
2023/05/11 13:15:23;;;;;;;0.40;0.30;;;;;;;;;;5094723;28;20435;-78
2023/05/11 13:18:00;;;;;;;0.98;0.32;;;;;;;;;;5094380;28;20414;-77
2023/05/11 13:20:29;;;;;;;0.60;0.40;;;;;;;;;;5094837;28;20406;-78
2023/05/11 13:23:05;;;;;;;0.70;0.40;;;;;;;;;;5094520;28;20451;-77
2023/05/11 13:25:31;;;;;;;0.45;0.40;;;;;;;;;;5094507;28;20375;-77
2023/05/11 13:27:57;;;;;;;0.70;0.40;;;;;;;;;;5094125;28;20385;-77
2023/05/11 13:30:23;;;;;;;0.43;0.40;;;;;;;;;;5094736;28;20374;-77
2023/05/11 13:32:49;;;;;;;1.05;0.40;;;;;;;;;;5094162;28;20382;-77
2023/05/11 13:35:16;;;;;;;0.65;0.38;;;;;;;;;;5094432;28;20566;-77
2023/05/11 13:37:42;;;;;;;0.45;0.40;;;;;;;;;;5094158;28;20428;-77
2023/05/11 13:40:09;;;;;;;0.43;0.40;;;;;;;;;;5094106;28;20386;-77
2023/05/11 13:42:35;;;;;;;1.17;0.60;;;;;;;;;;5094451;28;20374;-77
2023/05/11 13:45:01;;;;;;;0.70;0.43;;;;;;;;;;5094106;28;20463;-79
2023/05/11 13:47:27;;;;;;;0.70;0.60;;;;;;;;;;5102896;28;20379;-79
2023/05/11 13:49:53;;;;;;;1.52;0.60;;;;;;;;;;5118183;27;20505;-79
2023/05/11 13:52:21;;;;;;;0.40;0.40;;;;;;;;;;5107154;28;20405;-78
2023/05/11 13:54:47;;;;;;;0.70;0.60;;;;;;;;;;5104966;28;20425;-79
2023/05/11 13:57:13;;;;;;;1.10;0.60;;;;;;;;;;5094312;28;20870;-79
2023/05/11 13:59:39;;;;;;;1.05;0.57;;;;;;;;;;5102885;27;20381;-80
2023/05/11 14:02:05;;;;;;;2.83;0.80;;;;;;;;;;5121044;27;20490;-81
2023/05/11 14:04:31;;;;;;;3.05;0.90;;;;;;;;;;5093533;28;20375;-81
2023/05/11 14:06:58;;;;;;;1.88;0.80;;;;;;;;;;5087125;28;20441;-82
2023/05/11 14:09:25;;;;;;;1.27;0.60;;;;;;;;;;5096036;28;20933;-81
2023/05/11 14:11:51;;;;;;;0.60;0.33;;;;;;;;;;5093628;28;20382;-81
2023/05/11 14:14:17;;;;;;;0.55;0.47;;;;;;;;;;5126561;27;20428;-80
2023/05/11 14:16:43;;;;;;;0.43;0.40;;;;;;;;;;5105869;28;20378;-80
2023/05/11 14:19:09;;;;;;;0.60;0.47;;;;;;;;;;5086078;28;20750;-80
2023/05/11 14:21:35;;;;;;;1.23;0.60;;;;;;;;;;5093395;28;20462;-80
2023/05/11 14:24:01;;;;;;;1.35;0.70;;;;;;;;;;5093695;28;20385;-79
2023/05/11 14:26:27;;;;;;;2.42;1.45;;;;;;;;;;5092956;28;20370;-79
2023/05/11 14:28:53;;;;;;;2.10;1.38;;;;;;;;;;5093354;28;20374;-79
2023/05/11 14:31:19;;;;;;;1.30;0.88;;;;;;;;;;5093084;28;20370;-79
2023/05/11 14:33:45;;;;;;;1.80;0.90;;;;;;;;;;5093617;28;20405;-79
2023/05/11 14:36:11;;;;;;;1.00;0.80;;;;;;;;;;5092951;28;20382;-79
2023/05/11 14:38:37;;;;;;;0.70;0.53;;;;;;;;;;5092188;28;20373;-79
2023/05/11 14:41:04;;;;;;;0.73;0.60;;;;;;;;;;5092704;28;20445;-79
2023/05/11 14:43:30;;;;;;;1.33;0.50;;;;;;;;;;5091838;28;20874;-79
2023/05/11 14:45:56;;;;;;;1.30;0.70;;;;;;;;;;5088705;28;20385;-79
2023/05/11 14:48:22;;;;;;;1.30;0.65;;;;;;;;;;5107632;28;20372;-78
2023/05/11 14:50:48;;;;;;;1.35;0.60;;;;;;;;;;5093758;28;20760;-79
2023/05/11 14:53:14;;;;;;;1.02;0.60;;;;;;;;;;5102126;28;20811;-78
2023/05/11 14:55:40;;;;;;;1.33;0.98;;;;;;;;;;5112104;28;20416;-79
2023/05/11 14:58:08;;;;;;;0.68;0.60;;;;;;;;;;5110872;28;20376;-78